Time;durP1;ratioP1;P1;durP2;ratioP2;P2;SDS_P1;SDS_P2;PMS_P1;PMS_P2;Temp;Humidity;BMP_temperature;BMP_pressure;BME280_temperature;BME280_humidity;BME280_pressure;Samples;Min_cycle;Max_cycle;Signal;HPM_P1;HPM_P2
2023/07/22 00:01:10;;;;;;;7.70;3.70;;;13.20;62.70;;;;;;5048648;28;20469;-51
2023/07/22 00:03:37;;;;;;;4.20;3.80;;;13.20;62.90;;;;;;5049575;28;20476;-53
2023/07/22 00:06:05;;;;;;;5.27;4.00;;;13.20;62.90;;;;;;5046817;28;20462;-52
2023/07/22 00:08:33;;;;;;;5.40;3.87;;;13.20;62.90;;;;;;5038176;28;20482;-52
2023/07/22 00:11:00;;;;;;;4.43;3.97;;;13.20;62.00;;;;;;5044891;28;20461;-51
2023/07/22 00:13:27;;;;;;;6.60;3.70;;;13.20;62.10;;;;;;5048289;28;21100;-51
2023/07/22 00:15:54;;;;;;;5.53;4.07;;;13.20;60.40;;;;;;5046764;28;21005;-51
2023/07/22 00:18:20;;;;;;;5.60;5.10;;;13.30;62.00;;;;;;5047676;28;20458;-51
2023/07/22 00:20:47;;;;;;;16.63;4.00;;;13.30;62.00;;;;;;5048746;28;20585;-52
2023/07/22 00:23:15;;;;;;;7.13;4.03;;;13.30;62.20;;;;;;5047491;28;20974;-52
2023/07/22 00:25:42;;;;;;;5.10;4.00;;;13.40;61.70;;;;;;5046400;28;20485;-52
2023/07/22 00:28:10;;;;;;;4.33;3.93;;;13.40;62.30;;;;;;5045456;28;21069;-52
2023/07/22 00:30:36;;;;;;;5.77;4.33;;;13.40;61.70;;;;;;5048508;28;21565;-52
2023/07/22 00:33:03;;;;;;;4.37;3.97;;;13.40;60.90;;;;;;5045806;28;20537;-51
2023/07/22 00:35:29;;;;;;;4.57;4.03;;;13.50;60.50;;;;;;5048656;28;20548;-51
2023/07/22 00:37:56;;;;;;;7.00;4.40;;;13.50;60.30;;;;;;5042743;28;20463;-52
2023/07/22 00:40:23;;;;;;;6.63;4.73;;;13.50;60.30;;;;;;5051277;28;21036;-53
2023/07/22 00:42:51;;;;;;;8.13;5.37;;;13.50;60.00;;;;;;5052119;28;20562;-53
2023/07/22 00:45:18;;;;;;;5.90;4.80;;;13.50;59.60;;;;;;5050143;28;20996;-53
2023/07/22 00:47:45;;;;;;;11.00;3.97;;;13.50;59.40;;;;;;5053553;28;20524;-51
2023/07/22 00:50:12;;;;;;;4.43;4.00;;;13.50;59.10;;;;;;5052722;28;20998;-51
2023/07/22 00:52:39;;;;;;;4.40;4.00;;;13.50;58.80;;;;;;5045099;28;21003;-50
2023/07/22 00:55:07;;;;;;;6.13;4.50;;;13.50;58.10;;;;;;5050121;28;20569;-52
2023/07/22 00:57:34;;;;;;;4.20;3.90;;;13.50;58.20;;;;;;5050417;28;20481;-52
2023/07/22 01:00:03;;;;;;;6.43;4.13;;;13.50;58.30;;;;;;5051606;28;20564;-51
2023/07/22 01:02:29;;;;;;;4.87;4.33;;;13.50;58.10;;;;;;5050801;28;20469;-52
2023/07/22 01:04:56;;;;;;;7.70;4.53;;;13.50;57.90;;;;;;5044849;28;20465;-52
2023/07/22 01:07:23;;;;;;;7.57;3.67;;;13.50;57.60;;;;;;5050877;28;20485;-51
2023/07/22 01:09:49;;;;;;;4.77;4.33;;;13.50;57.60;;;;;;5051866;28;20485;-51
2023/07/22 01:12:16;;;;;;;4.17;3.67;;;13.50;57.50;;;;;;5051164;28;20545;-52
2023/07/22 01:14:43;;;;;;;4.93;4.37;;;13.60;57.30;;;;;;5051138;28;20821;-52
2023/07/22 01:17:12;;;;;;;4.60;4.20;;;13.60;57.10;;;;;;5050731;28;20462;-51
2023/07/22 01:19:39;;;;;;;4.90;4.20;;;13.50;56.90;;;;;;5051827;28;20931;-52
2023/07/22 01:22:08;;;;;;;3.67;3.47;;;13.50;56.90;;;;;;5051413;28;20549;-51
2023/07/22 01:24:36;;;;;;;6.00;4.50;;;13.50;56.90;;;;;;5050073;28;21676;-52
2023/07/22 01:27:07;;;;;;;4.43;4.03;;;13.50;56.90;;;;;;5046045;28;20465;-53
2023/07/22 01:29:34;;;;;;;5.00;3.87;;;13.50;57.00;;;;;;5050832;28;20861;-51
2023/07/22 01:32:01;;;;;;;9.10;4.30;;;13.50;56.80;;;;;;5043511;28;20520;-51
2023/07/22 01:34:27;;;;;;;4.40;4.00;;;13.50;56.80;;;;;;5050296;28;20911;-51
2023/07/22 01:36:54;;;;;;;4.00;3.53;;;13.50;56.90;;;;;;5048468;28;20552;-53
2023/07/22 01:39:21;;;;;;;5.53;4.20;;;13.50;57.10;;;;;;5052454;28;20489;-53
2023/07/22 01:41:49;;;;;;;5.70;4.40;;;13.50;57.20;;;;;;5050969;28;21094;-52
2023/07/22 01:44:16;;;;;;;4.97;4.40;;;13.50;57.10;;;;;;5049297;28;20541;-51
2023/07/22 01:46:42;;;;;;;3.83;3.63;;;13.50;57.10;;;;;;5045177;28;20586;-53
2023/07/22 01:49:12;;;;;;;4.97;3.80;;;13.50;57.10;;;;;;5046595;28;20580;-52
2023/07/22 01:51:39;;;;;;;5.03;3.70;;;13.50;57.40;;;;;;5047382;28;20466;-52
2023/07/22 01:54:05;;;;;;;15.33;3.63;;;13.50;57.30;;;;;;5050889;28;20454;-51
2023/07/22 01:56:32;;;;;;;8.07;5.10;;;13.50;57.40;;;;;;5048704;28;20493;-52
2023/07/22 01:59:00;;;;;;;4.83;4.10;;;13.50;57.40;;;;;;5050664;28;21164;-52
2023/07/22 02:01:28;;;;;;;4.67;4.20;;;13.50;57.70;;;;;;5047808;28;20493;-51
2023/07/22 02:03:54;;;;;;;4.83;4.20;;;13.50;57.90;;;;;;5045062;28;20469;-51
2023/07/22 02:06:21;;;;;;;4.07;3.77;;;13.50;57.70;;;;;;5052762;28;20500;-51
2023/07/22 02:08:47;;;;;;;7.90;4.50;;;13.50;57.80;;;;;;5051457;28;20513;-52
2023/07/22 02:11:14;;;;;;;10.07;3.87;;;13.50;57.70;;;;;;5048260;28;20459;-51
2023/07/22 02:13:40;;;;;;;4.33;3.60;;;13.40;57.90;;;;;;5051392;28;20517;-52
2023/07/22 02:16:11;;;;;;;4.40;4.00;;;13.40;57.90;;;;;;5048991;28;20515;-52
2023/07/22 02:18:37;;;;;;;4.00;3.60;;;13.40;57.80;;;;;;5050459;28;20509;-51
2023/07/22 02:21:04;;;;;;;3.70;3.40;;;13.40;57.90;;;;;;5048769;28;20486;-52
2023/07/22 02:23:31;;;;;;;4.30;3.10;;;13.40;58.10;;;;;;5048154;28;20496;-51
2023/07/22 02:25:57;;;;;;;4.03;3.37;;;13.40;58.30;;;;;;5050303;28;20524;-51
2023/07/22 02:28:24;;;;;;;3.50;3.13;;;13.30;58.50;;;;;;5050544;28;21009;-51
2023/07/22 02:30:52;;;;;;;6.47;3.80;;;13.40;58.40;;;;;;5044534;28;20493;-53
2023/07/22 02:33:21;;;;;;;7.70;3.40;;;13.40;58.50;;;;;;5049773;28;20461;-52
2023/07/22 02:35:48;;;;;;;4.23;3.40;;;13.40;58.30;;;;;;5048533;28;20463;-52
2023/07/22 02:38:15;;;;;;;3.40;3.10;;;13.40;58.20;;;;;;5047145;28;20457;-52
2023/07/22 02:40:42;;;;;;;4.37;3.37;;;13.40;58.30;;;;;;5038500;28;21002;-52
2023/07/22 02:43:08;;;;;;;3.97;3.40;;;13.40;57.90;;;;;;5049897;28;20489;-52
2023/07/22 02:45:35;;;;;;;3.27;3.07;;;13.40;58.20;;;;;;5049961;28;20947;-52
2023/07/22 02:48:02;;;;;;;3.60;3.30;;;13.40;58.20;;;;;;5049983;28;20453;-53
2023/07/22 02:50:30;;;;;;;3.47;3.17;;;13.40;58.30;;;;;;5043948;28;20490;-51
2023/07/22 02:52:56;;;;;;;4.17;3.10;;;13.40;58.30;;;;;;5047226;28;20486;-53
2023/07/22 02:55:23;;;;;;;3.77;3.47;;;13.40;58.50;;;;;;5046979;28;20458;-52
2023/07/22 02:57:50;;;;;;;6.20;3.63;;;13.40;58.50;;;;;;5048323;28;20457;-52
2023/07/22 03:00:23;;;;;;;3.87;3.20;;;13.40;58.40;;;;;;5050314;28;20516;-53
2023/07/22 03:02:50;;;;;;;10.20;3.10;;;13.40;58.30;;;;;;5050043;28;20958;-53
2023/07/22 03:05:17;;;;;;;3.50;3.20;;;13.40;58.50;;;;;;5044637;28;20461;-53
2023/07/22 03:07:45;;;;;;;7.90;3.00;;;13.40;58.40;;;;;;5049750;28;20485;-51
2023/07/22 03:10:11;;;;;;;6.63;3.30;;;13.40;58.40;;;;;;5050542;28;20524;-52
2023/07/22 03:12:38;;;;;;;3.40;3.20;;;13.30;58.60;;;;;;5046532;28;20975;-52
2023/07/22 03:15:08;;;;;;;3.80;3.40;;;13.30;58.80;;;;;;5047316;28;20458;-52
2023/07/22 03:17:35;;;;;;;10.03;3.27;;;13.30;59.20;;;;;;5049371;28;20462;-52
2023/07/22 03:20:02;;;;;;;5.20;3.30;;;13.30;59.50;;;;;;5049474;28;21038;-53
2023/07/22 03:22:29;;;;;;;7.77;3.13;;;13.20;59.70;;;;;;5047932;28;20554;-53
2023/07/22 03:24:56;;;;;;;5.80;3.30;;;13.20;59.80;;;;;;5047600;28;20493;-53
2023/07/22 03:27:23;;;;;;;3.83;3.33;;;13.20;59.90;;;;;;5049081;28;20489;-52
2023/07/22 03:29:50;;;;;;;3.47;3.03;;;13.20;60.20;;;;;;5046003;28;20912;-50
2023/07/22 03:32:16;;;;;;;5.30;3.50;;;13.20;60.50;;;;;;5048373;28;20454;-52
2023/07/22 03:34:44;;;;;;;4.30;3.90;;;13.20;60.70;;;;;;5049438;28;20838;-52
2023/07/22 03:37:10;;;;;;;3.50;3.30;;;13.20;61.10;;;;;;5049586;28;20498;-52
2023/07/22 03:39:37;;;;;;;4.07;3.10;;;13.10;61.50;;;;;;5048295;28;20572;-52
2023/07/22 03:42:06;;;;;;;3.20;2.90;;;13.10;61.50;;;;;;5046070;28;20462;-52
2023/07/22 03:44:32;;;;;;;3.03;2.73;;;13.00;61.90;;;;;;5043636;28;20534;-53
2023/07/22 03:47:01;;;;;;;4.03;3.53;;;13.00;62.10;;;;;;5048542;28;20493;-52
2023/07/22 03:49:27;;;;;;;7.40;3.10;;;13.00;62.30;;;;;;5049872;28;20486;-52
2023/07/22 03:51:54;;;;;;;3.43;3.13;;;13.00;62.40;;;;;;5049135;28;20489;-53
2023/07/22 03:54:20;;;;;;;4.10;3.07;;;12.90;63.00;;;;;;5042872;28;20517;-52
2023/07/22 03:56:47;;;;;;;3.27;3.00;;;12.90;62.90;;;;;;5046052;28;20545;-53
2023/07/22 03:59:14;;;;;;;7.37;3.73;;;12.90;63.20;;;;;;5043602;28;20536;-53
2023/07/22 04:01:41;;;;;;;3.53;3.33;;;12.90;63.10;;;;;;5044980;28;20552;-51
2023/07/22 04:04:08;;;;;;;2.27;2.10;;;12.90;63.10;;;;;;5047996;28;20457;-52
2023/07/22 04:06:34;;;;;;;3.73;3.00;;;12.90;63.10;;;;;;5049205;28;20462;-52
2023/07/22 04:09:01;;;;;;;10.20;3.43;;;12.90;63.20;;;;;;5047295;28;20528;-51
2023/07/22 04:11:27;;;;;;;2.90;2.73;;;12.90;63.20;;;;;;5049122;28;20877;-52
2023/07/22 04:13:54;;;;;;;4.10;3.30;;;12.90;63.40;;;;;;5033832;28;20453;-51
2023/07/22 04:16:22;;;;;;;3.13;2.90;;;12.90;63.30;;;;;;5047859;28;20458;-51
2023/07/22 04:18:49;;;;;;;8.63;4.07;;;12.90;63.50;;;;;;5053410;28;20520;-51
2023/07/22 04:21:15;;;;;;;7.03;3.20;;;12.90;63.60;;;;;;5055063;28;20480;-51
2023/07/22 04:23:42;;;;;;;3.50;3.30;;;12.90;63.60;;;;;;5041885;28;20497;-52
2023/07/22 04:26:08;;;;;;;7.17;3.30;;;12.90;63.40;;;;;;5054806;28;20450;-52
2023/07/22 04:28:35;;;;;;;6.13;2.43;;;12.90;63.30;;;;;;5045444;28;20490;-52
2023/07/22 04:31:02;;;;;;;3.77;3.10;;;12.90;63.20;;;;;;5043750;28;20485;-53
2023/07/22 04:33:30;;;;;;;5.97;3.43;;;12.90;63.00;;;;;;5043915;28;20462;-52
2023/07/22 04:35:59;;;;;;;4.63;3.23;;;12.90;62.80;;;;;;5045799;28;20512;-51
2023/07/22 04:38:25;;;;;;;7.40;3.23;;;13.00;62.70;;;;;;5048732;28;20567;-51
2023/07/22 04:40:52;;;;;;;6.57;3.40;;;13.00;62.50;;;;;;5055093;28;20542;-52
2023/07/22 04:43:18;;;;;;;4.43;3.00;;;13.00;62.50;;;;;;5047806;28;20457;-52
2023/07/22 04:45:47;;;;;;;4.80;3.30;;;13.00;62.30;;;;;;5050853;28;20952;-52
2023/07/22 04:48:14;;;;;;;5.83;3.60;;;13.10;62.20;;;;;;5053606;28;20457;-51
2023/07/22 04:50:44;;;;;;;4.10;3.50;;;13.10;62.10;;;;;;5046548;28;20942;-53
2023/07/22 04:53:12;;;;;;;3.10;2.90;;;13.10;62.10;;;;;;5051278;28;20492;-52
2023/07/22 04:55:39;;;;;;;7.43;2.90;;;13.10;62.20;;;;;;5052209;28;20564;-53
2023/07/22 04:58:06;;;;;;;4.40;3.60;;;13.10;62.00;;;;;;5052529;28;20485;-52
2023/07/22 05:00:33;;;;;;;3.53;3.27;;;13.20;62.60;;;;;;5051462;28;20477;-51
2023/07/22 05:03:00;;;;;;;4.17;3.50;;;13.20;62.50;;;;;;5038946;28;20987;-52
2023/07/22 05:05:27;;;;;;;2.70;2.60;;;13.20;64.20;;;;;;5047913;28;20489;-52
2023/07/22 05:07:54;;;;;;;2.80;2.60;;;13.20;63.20;;;;;;5050049;28;20453;-52
2023/07/22 05:10:21;;;;;;;3.70;3.40;;;13.30;62.80;;;;;;5052536;28;20481;-52
2023/07/22 05:12:48;;;;;;;4.67;3.30;;;13.30;63.60;;;;;;5047006;28;20971;-52
2023/07/22 05:15:15;;;;;;;3.73;3.43;;;13.30;64.40;;;;;;5050158;28;20481;-52
2023/07/22 05:17:41;;;;;;;4.90;4.00;;;13.30;63.40;;;;;;5043900;28;20885;-52
2023/07/22 05:20:10;;;;;;;5.07;3.60;;;13.40;65.00;;;;;;5046761;28;20512;-53
2023/07/22 05:22:37;;;;;;;7.73;5.00;;;13.40;65.30;;;;;;5046539;28;20465;-53
2023/07/22 05:25:06;;;;;;;4.63;4.30;;;13.40;65.90;;;;;;5049553;28;20507;-51
2023/07/22 05:27:32;;;;;;;7.13;4.67;;;13.50;66.10;;;;;;5051579;28;20492;-51
2023/07/22 05:29:59;;;;;;;14.17;5.00;;;13.50;67.90;;;;;;5045912;28;20482;-53
2023/07/22 05:32:26;;;;;;;9.03;4.70;;;13.60;69.30;;;;;;5050368;28;20911;-53
2023/07/22 05:34:52;;;;;;;5.00;4.43;;;13.60;71.30;;;;;;5044993;28;20462;-53
2023/07/22 05:37:19;;;;;;;7.13;4.67;;;13.60;73.90;;;;;;5051766;28;20559;-52
2023/07/22 05:39:45;;;;;;;8.13;5.83;;;13.60;74.80;;;;;;5051932;28;20559;-51
2023/07/22 05:42:13;;;;;;;5.63;4.80;;;13.60;81.20;;;;;;5047072;28;20565;-51
2023/07/22 05:44:39;;;;;;;10.60;4.80;;;13.60;81.30;;;;;;5051689;28;21025;-51
2023/07/22 05:47:06;;;;;;;13.60;6.43;;;13.70;80.80;;;;;;5045152;28;20540;-52
2023/07/22 05:49:33;;;;;;;6.77;5.50;;;13.70;86.80;;;;;;5051094;28;21019;-52
2023/07/22 05:52:00;;;;;;;5.73;5.23;;;13.70;90.30;;;;;;5049279;28;20485;-52
2023/07/22 05:54:26;;;;;;;9.63;4.93;;;13.70;88.90;;;;;;5050872;28;20998;-52
2023/07/22 05:56:53;;;;;;;7.23;5.80;;;13.80;87.80;;;;;;5050628;28;20501;-52
2023/07/22 05:59:21;;;;;;;12.23;6.90;;;13.90;88.10;;;;;;5046309;28;20500;-52
2023/07/22 06:01:47;;;;;;;8.50;5.50;;;13.90;88.00;;;;;;5038703;28;20509;-52
2023/07/22 06:04:14;;;;;;;8.60;6.20;;;14.00;89.00;;;;;;5046457;28;20895;-52
2023/07/22 06:06:40;;;;;;;7.60;6.03;;;14.00;93.60;;;;;;5042549;28;20491;-52
2023/07/22 06:09:07;;;;;;;10.17;6.40;;;14.10;94.50;;;;;;5044704;28;20513;-52
2023/07/22 06:11:33;;;;;;;7.27;5.20;;;14.10;99.10;;;;;;5050994;28;20517;-52
2023/07/22 06:14:00;;;;;;;11.23;6.60;;;14.20;98.70;;;;;;5040491;28;20502;-52
2023/07/22 06:16:28;;;;;;;9.97;6.17;;;14.30;99.90;;;;;;5047363;28;20461;-52
2023/07/22 06:18:54;;;;;;;7.60;5.40;;;14.30;99.90;;;;;;5045080;28;20485;-52
2023/07/22 06:21:21;;;;;;;6.03;5.43;;;14.30;99.90;;;;;;5051175;28;20508;-53
2023/07/22 06:23:47;;;;;;;9.07;5.73;;;14.40;99.90;;;;;;5052254;28;21005;-52
2023/07/22 06:26:14;;;;;;;11.40;6.17;;;14.50;99.90;;;;;;5051496;28;20489;-53
2023/07/22 06:28:40;;;;;;;6.57;5.00;;;14.50;99.90;;;;;;5052389;28;20509;-52
2023/07/22 06:31:07;;;;;;;8.63;5.87;;;14.60;99.90;;;;;;5051877;28;20517;-51
2023/07/22 06:33:36;;;;;;;8.17;6.70;;;14.60;99.90;;;;;;5039579;28;20552;-52
2023/07/22 06:36:02;;;;;;;11.90;6.40;;;14.60;99.90;;;;;;5042507;28;20539;-51
2023/07/22 06:38:29;;;;;;;8.13;5.17;;;14.60;99.90;;;;;;5046521;28;20493;-51
2023/07/22 06:40:57;;;;;;;7.07;5.50;;;14.60;99.90;;;;;;5049375;28;20467;-51
2023/07/22 06:43:23;;;;;;;11.80;6.70;;;14.70;99.90;;;;;;5045332;28;20462;-52
2023/07/22 06:45:50;;;;;;;7.97;6.07;;;14.80;99.90;;;;;;5051565;28;20516;-52
2023/07/22 06:48:17;;;;;;;6.83;6.00;;;14.80;99.90;;;;;;5043942;28;20516;-53
2023/07/22 06:50:49;;;;;;;10.70;6.83;;;14.90;99.90;;;;;;5043470;28;20501;-51
2023/07/22 06:53:15;;;;;;;10.90;5.90;;;15.00;99.90;;;;;;5044199;28;20470;-53
2023/07/22 06:55:49;;;;;;;8.00;5.40;;;15.00;99.90;;;;;;5050891;28;20497;-52
2023/07/22 06:58:15;;;;;;;6.77;5.47;;;15.10;99.90;;;;;;5047784;28;20454;-51
2023/07/22 07:00:42;;;;;;;11.07;6.00;;;15.10;99.90;;;;;;5045511;28;20492;-52
2023/07/22 07:03:08;;;;;;;9.40;5.90;;;15.30;99.90;;;;;;5049785;28;20497;-52
2023/07/22 07:05:35;;;;;;;7.53;5.67;;;15.30;99.90;;;;;;5049099;28;20461;-52
2023/07/22 07:08:03;;;;;;;8.87;5.13;;;15.40;99.90;;;;;;5049802;28;20469;-53
2023/07/22 07:10:30;;;;;;;13.20;6.03;;;15.40;99.90;;;;;;5051569;28;20509;-53
2023/07/22 07:12:56;;;;;;;8.13;5.90;;;15.50;99.90;;;;;;5040316;28;20510;-54
2023/07/22 07:15:24;;;;;;;8.77;6.63;;;15.60;99.90;;;;;;5044763;28;20492;-52
2023/07/22 07:17:51;;;;;;;7.07;5.40;;;15.60;99.90;;;;;;5046555;28;20834;-52
2023/07/22 07:20:18;;;;;;;11.40;6.27;;;15.60;90.70;;;;;;5049969;28;20501;-52
2023/07/22 07:22:44;;;;;;;16.90;7.13;;;15.70;26.20;;;;;;5049272;28;20520;-52
2023/07/22 07:25:12;;;;;;;7.13;5.80;;;15.70;29.50;;;;;;5039947;28;20482;-52
2023/07/22 07:27:39;;;;;;;9.93;7.20;;;15.80;99.90;;;;;;5040299;28;20466;-52
2023/07/22 07:30:07;;;;;;;7.57;5.73;;;15.90;47.40;;;;;;5050529;28;20497;-52
2023/07/22 07:32:34;;;;;;;6.97;6.27;;;15.90;51.40;;;;;;5048766;28;20462;-51
2023/07/22 07:35:01;;;;;;;11.40;5.00;;;16.10;57.50;;;;;;5044356;28;20583;-52
2023/07/22 07:37:27;;;;;;;9.80;5.80;;;16.20;79.50;;;;;;5046403;28;20528;-52
2023/07/22 07:39:59;;;;;;;8.67;5.67;;;16.20;74.90;;;;;;5042882;28;20518;-52
2023/07/22 07:42:27;;;;;;;8.73;6.10;;;16.20;64.10;;;;;;5048790;28;20530;-51
2023/07/22 07:44:53;;;;;;;7.13;5.60;;;16.20;78.40;;;;;;5050460;28;20476;-52
2023/07/22 07:47:20;;;;;;;8.77;6.20;;;16.20;66.70;;;;;;5047493;28;20489;-51
2023/07/22 07:49:47;;;;;;;8.97;6.27;;;16.20;64.50;;;;;;5048856;28;20489;-52
2023/07/22 07:52:13;;;;;;;10.80;5.37;;;16.20;70.70;;;;;;5050819;28;20521;-51
2023/07/22 07:54:40;;;;;;;6.47;5.70;;;16.40;99.90;;;;;;5043218;28;20461;-51
2023/07/22 07:57:07;;;;;;;6.17;5.47;;;16.40;99.90;;;;;;5042483;28;20462;-52
2023/07/22 07:59:35;;;;;;;9.60;5.87;;;16.40;99.90;;;;;;5041476;28;20578;-51
2023/07/22 08:02:02;;;;;;;8.80;6.33;;;16.50;99.90;;;;;;5049793;28;20493;-52
2023/07/22 08:04:29;;;;;;;7.00;5.10;;;16.50;99.90;;;;;;5048122;28;21005;-52
2023/07/22 08:06:55;;;;;;;7.43;4.73;;;16.60;96.10;;;;;;5039921;28;20893;-52
2023/07/22 08:09:22;;;;;;;6.60;5.53;;;16.60;99.90;;;;;;5046116;28;20517;-52
2023/07/22 08:11:48;;;;;;;8.13;5.30;;;16.70;99.90;;;;;;5049886;28;20610;-52
2023/07/22 08:14:16;;;;;;;7.80;5.80;;;16.70;99.90;;;;;;5044797;28;20898;-52
2023/07/22 08:16:44;;;;;;;8.30;5.67;;;16.70;99.90;;;;;;5046737;28;20468;-52
2023/07/22 08:19:11;;;;;;;17.87;5.10;;;16.60;99.90;;;;;;5042098;28;20520;-52
2023/07/22 08:21:38;;;;;;;10.70;4.70;;;16.60;99.90;;;;;;5047384;28;20485;-52
2023/07/22 08:24:05;;;;;;;8.27;4.83;;;16.70;99.90;;;;;;5048358;28;20466;-52
2023/07/22 08:26:32;;;;;;;7.07;5.40;;;16.90;99.90;;;;;;5045912;28;20504;-52
2023/07/22 08:28:58;;;;;;;6.30;5.70;;;17.10;99.90;;;;;;5046157;28;20511;-52
2023/07/22 08:31:25;;;;;;;11.03;6.03;;;17.20;99.90;;;;;;5038020;28;20590;-52
2023/07/22 08:33:53;;;;;;;5.20;4.70;;;17.20;99.90;;;;;;5044775;28;20999;-52
2023/07/22 08:36:19;;;;;;;9.13;4.83;;;17.30;99.90;;;;;;5044143;28;20481;-51
2023/07/22 08:38:46;;;;;;;8.07;5.00;;;17.50;99.90;;;;;;5042282;28;20860;-52
2023/07/22 08:41:15;;;;;;;6.43;4.50;;;17.50;99.90;;;;;;5047021;28;20449;-52
2023/07/22 08:43:43;;;;;;;4.73;4.33;;;17.60;99.90;;;;;;5047715;28;20469;-52
2023/07/22 08:46:11;;;;;;;8.30;4.53;;;17.50;99.90;;;;;;5047104;28;21032;-52
2023/07/22 08:48:42;;;;;;;4.93;4.43;;;17.40;99.90;;;;;;5047415;28;20572;-52
2023/07/22 08:51:14;;;;;;;6.37;4.27;;;17.30;99.90;;;;;;5047823;28;20555;-53
2023/07/22 08:53:41;;;;;;;5.77;4.53;;;17.20;99.90;;;;;;5043513;28;22288;-51
2023/07/22 08:56:08;;;;;;;15.70;4.10;;;17.10;99.90;;;;;;5048079;28;20547;-52
2023/07/22 08:58:36;;;;;;;8.50;4.03;;;17.30;99.90;;;;;;5047092;28;20453;-52
2023/07/22 09:01:03;;;;;;;8.60;4.67;;;17.60;99.90;;;;;;5048638;28;20585;-52
2023/07/22 09:03:30;;;;;;;7.87;4.47;;;17.60;99.90;;;;;;5049323;28;20873;-52
2023/07/22 09:05:57;;;;;;;5.63;4.67;;;17.60;99.90;;;;;;5050996;28;20454;-53
2023/07/22 09:08:25;;;;;;;6.67;4.53;;;17.60;99.90;;;;;;5050743;28;20512;-51
2023/07/22 09:10:52;;;;;;;5.97;4.80;;;17.70;99.90;;;;;;5045733;28;20994;-51
2023/07/22 09:13:20;;;;;;;7.80;4.10;;;17.80;24.60;;;;;;5046250;28;20987;-52
2023/07/22 09:15:47;;;;;;;3.80;3.50;;;17.90;27.10;;;;;;5050280;28;20469;-53
2023/07/22 09:18:15;;;;;;;4.10;3.40;;;18.00;56.40;;;;;;5050902;28;20825;-52
2023/07/22 09:20:42;;;;;;;4.77;4.23;;;18.10;33.70;;;;;;5051957;28;20500;-52
2023/07/22 09:23:09;;;;;;;4.67;4.07;;;18.00;33.70;;;;;;5048262;28;20465;-53
2023/07/22 09:25:37;;;;;;;5.37;4.50;;;18.10;57.40;;;;;;5046017;28;20904;-51
2023/07/22 09:28:04;;;;;;;9.93;3.63;;;18.30;62.80;;;;;;5040812;28;20545;-52
2023/07/22 09:30:31;;;;;;;4.03;3.47;;;18.40;92.10;;;;;;5049131;28;20486;-51
2023/07/22 09:32:59;;;;;;;3.60;3.30;;;18.30;99.90;;;;;;5042973;28;20490;-51
2023/07/22 09:35:27;;;;;;;10.60;3.93;;;18.30;99.90;;;;;;5042649;28;21063;-52
2023/07/22 09:37:55;;;;;;;7.23;3.60;;;18.30;99.80;;;;;;5049145;28;20462;-52
2023/07/22 09:40:23;;;;;;;5.97;3.67;;;18.40;93.30;;;;;;5048192;28;20521;-52
2023/07/22 09:42:52;;;;;;;4.97;3.30;;;18.50;99.90;;;;;;5052785;28;20481;-52
2023/07/22 09:45:22;;;;;;;8.80;3.40;;;18.80;99.90;;;;;;5048461;28;20489;-52
2023/07/22 09:47:50;;;;;;;3.60;3.10;;;18.60;99.90;;;;;;5047075;28;20493;-51
2023/07/22 09:50:18;;;;;;;4.90;2.93;;;18.70;99.90;;;;;;5052433;28;20478;-51
2023/07/22 09:52:47;;;;;;;3.80;2.80;;;18.80;99.90;;;;;;5047632;28;20514;-50
2023/07/22 09:55:15;;;;;;;4.53;3.50;;;18.70;99.90;;;;;;5048344;28;20462;-51
2023/07/22 09:57:45;;;;;;;4.60;3.20;;;18.70;99.90;;;;;;5048707;28;20494;-52
2023/07/22 10:00:15;;;;;;;3.23;2.93;;;18.60;99.90;;;;;;5044219;28;20505;-52
2023/07/22 10:02:43;;;;;;;8.23;3.80;;;18.60;99.90;;;;;;5051749;28;20458;-51
2023/07/22 10:05:13;;;;;;;4.60;2.40;;;18.70;99.90;;;;;;5052999;28;20528;-52
2023/07/22 10:07:44;;;;;;;3.77;3.10;;;18.90;99.90;;;;;;5047451;28;21112;-52
2023/07/22 10:10:12;;;;;;;2.83;2.60;;;18.90;99.90;;;;;;5046766;28;20499;-52
2023/07/22 10:12:40;;;;;;;6.30;3.73;;;19.00;99.90;;;;;;5048298;28;20482;-51
2023/07/22 10:15:08;;;;;;;3.37;2.60;;;19.20;99.90;;;;;;5045812;28;20905;-52
2023/07/22 10:17:36;;;;;;;4.80;2.77;;;19.60;99.90;;;;;;5047269;28;20963;-52
2023/07/22 10:20:06;;;;;;;2.93;2.63;;;20.00;99.90;;;;;;5039717;28;21022;-52
2023/07/22 10:22:35;;;;;;;5.17;3.27;;;20.20;99.90;;;;;;5046286;28;20465;-51
2023/07/22 10:25:05;;;;;;;5.30;2.97;;;20.40;99.90;;;;;;5047677;28;20501;-53
2023/07/22 10:27:32;;;;;;;4.83;2.37;;;20.50;99.90;;;;;;5049860;28;20461;-52
2023/07/22 10:30:00;;;;;;;6.83;2.67;;;20.80;99.90;;;;;;5048198;28;20519;-52
2023/07/22 10:32:32;;;;;;;6.53;2.60;;;20.90;99.90;;;;;;5047602;28;20977;-52
2023/07/22 10:35:01;;;;;;;2.33;2.23;;;21.50;99.90;;;;;;5049405;28;20494;-51
2023/07/22 10:37:31;;;;;;;3.53;2.30;;;22.10;99.90;;;;;;5041805;28;20796;-52
2023/07/22 10:40:16;;;;;;;2.93;2.40;;;22.70;99.90;;;;;;5045303;28;20517;-52
2023/07/22 10:42:43;;;;;;;2.53;2.10;;;23.40;99.90;;;;;;5044002;28;20477;-51
2023/07/22 10:45:25;;;;;;;2.90;2.03;;;23.30;99.90;;;;;;5047226;28;20540;-52
2023/07/22 10:48:01;;;;;;;2.80;2.60;;;22.80;99.90;;;;;;5046907;28;20508;-51
2023/07/22 10:50:40;;;;;;;3.23;2.20;;;21.80;99.90;;;;;;5050423;28;20942;-51
2023/07/22 10:53:07;;;;;;;2.30;2.20;;;22.90;99.90;;;;;;5048647;28;21041;-52
2023/07/22 10:55:33;;;;;;;3.67;2.33;;;22.60;99.90;;;;;;5048060;28;20489;-51
2023/07/22 10:58:06;;;;;;;5.13;2.43;;;22.30;99.90;;;;;;5044494;28;20905;-50
2023/07/22 11:00:32;;;;;;;2.20;2.00;;;21.50;99.90;;;;;;5044436;28;20493;-51
2023/07/22 11:03:12;;;;;;;2.50;2.07;;;21.60;99.90;;;;;;5047839;28;20481;-51
2023/07/22 11:05:51;;;;;;;3.13;2.13;;;21.00;99.90;;;;;;5046919;28;20958;-51
2023/07/22 11:08:17;;;;;;;10.13;2.30;;;20.90;99.90;;;;;;5047437;28;20828;-52
2023/07/22 11:10:54;;;;;;;5.77;2.40;;;20.70;99.90;;;;;;5047507;28;20872;-52
2023/07/22 11:13:27;;;;;;;6.10;2.80;;;20.60;99.90;;;;;;5044798;28;20492;-51
2023/07/22 11:15:58;;;;;;;2.67;2.23;;;20.50;99.90;;;;;;5047089;28;20552;-51
2023/07/22 11:18:36;;;;;;;6.73;2.53;;;20.30;99.90;;;;;;5045416;28;20494;-52
2023/07/22 11:21:08;;;;;;;3.60;3.07;;;20.00;99.90;;;;;;5045275;28;20508;-51
2023/07/22 11:23:35;;;;;;;3.03;2.37;;;19.90;99.90;;;;;;5046454;28;20493;-52
2023/07/22 11:26:03;;;;;;;16.73;2.77;;;20.20;99.90;;;;;;5043926;28;20520;-51
2023/07/22 11:28:29;;;;;;;3.17;2.93;;;20.40;99.90;;;;;;5048306;28;20998;-51
2023/07/22 11:30:56;;;;;;;14.83;3.17;;;20.70;99.90;;;;;;5046860;28;20497;-52
2023/07/22 11:33:23;;;;;;;2.40;2.20;;;21.10;99.90;;;;;;5045164;28;20647;-52
2023/07/22 11:35:49;;;;;;;2.40;2.20;;;21.70;99.90;;;;;;5045974;28;20545;-52
2023/07/22 11:38:17;;;;;;;2.87;2.67;;;21.90;99.90;;;;;;5044080;28;20536;-51
2023/07/22 11:40:44;;;;;;;7.40;2.90;;;22.10;99.90;;;;;;5049536;28;20470;-51
2023/07/22 11:43:11;;;;;;;4.90;2.83;;;22.00;99.90;;;;;;5049883;28;20543;-52
2023/07/22 11:45:39;;;;;;;5.47;2.90;;;22.00;99.90;;;;;;5047205;28;20500;-52
2023/07/22 11:48:10;;;;;;;3.47;2.70;;;22.40;99.90;;;;;;5042985;28;20458;-51
2023/07/22 11:50:37;;;;;;;2.97;2.50;;;22.50;99.90;;;;;;5045332;28;20488;-51
2023/07/22 11:53:03;;;;;;;3.00;2.77;;;22.30;99.90;;;;;;5045294;28;20560;-52
2023/07/22 11:55:31;;;;;;;3.13;2.87;;;21.50;99.90;;;;;;5045670;28;20550;-53
2023/07/22 11:57:57;;;;;;;7.40;2.50;;;21.50;99.90;;;;;;5046780;28;21004;-52
2023/07/22 12:00:24;;;;;;;5.23;2.30;;;21.60;99.90;;;;;;5045932;28;20507;-52
2023/07/22 12:02:56;;;;;;;2.70;2.57;;;21.70;99.90;;;;;;5047341;28;20504;-52
2023/07/22 12:05:23;;;;;;;3.93;2.53;;;21.50;99.90;;;;;;5048468;28;20466;-52
2023/07/22 12:07:49;;;;;;;10.83;3.03;;;21.20;99.90;;;;;;5045623;28;20500;-54
2023/07/22 12:10:17;;;;;;;3.63;3.33;;;21.20;99.90;;;;;;5046700;28;21065;-52
2023/07/22 12:12:47;;;;;;;2.60;2.40;;;21.10;99.90;;;;;;5044803;28;20509;-52
2023/07/22 12:15:15;;;;;;;3.00;2.77;;;21.00;99.90;;;;;;5045246;28;20462;-52
2023/07/22 12:17:46;;;;;;;3.57;3.23;;;20.90;99.90;;;;;;5045651;28;20454;-52
2023/07/22 12:20:14;;;;;;;5.60;2.83;;;20.70;99.90;;;;;;5048145;28;20485;-52
2023/07/22 12:22:40;;;;;;;3.33;3.03;;;20.50;99.90;;;;;;5044403;28;20471;-52
2023/07/22 12:25:08;;;;;;;3.73;3.50;;;20.70;99.90;;;;;;5046920;28;20905;-52
2023/07/22 12:27:34;;;;;;;3.43;3.13;;;20.80;99.90;;;;;;5048446;28;21214;-51
2023/07/22 12:30:03;;;;;;;6.40;3.20;;;20.60;99.90;;;;;;5043997;28;20478;-52
2023/07/22 12:32:30;;;;;;;8.50;2.57;;;20.50;99.90;;;;;;5048336;28;20481;-51
2023/07/22 12:34:56;;;;;;;2.63;2.43;;;20.80;99.90;;;;;;5044629;28;20509;-53
2023/07/22 12:37:23;;;;;;;3.07;2.70;;;21.50;99.90;;;;;;5049716;28;20937;-53
2023/07/22 12:39:49;;;;;;;3.50;3.20;;;21.90;99.90;;;;;;5049098;28;20518;-52
2023/07/22 12:42:16;;;;;;;4.10;3.30;;;21.60;99.90;;;;;;5046690;28;20502;-51
2023/07/22 12:44:42;;;;;;;4.17;3.17;;;21.50;99.90;;;;;;5050765;28;20868;-51
2023/07/22 12:47:10;;;;;;;2.80;2.60;;;21.30;99.90;;;;;;5051219;28;20490;-52